sensor_id;sensor_type;location;lat;lon;timestamp;pressure;altitude;pressure_sealevel;temperature;humidity
10480;BME280;12789;42.610;23.040;2022-09-27T00:00:36;92733.75;;;16.04;100.00
10480;BME280;12789;42.610;23.040;2022-09-27T00:03:04;92728.50;;;16.04;100.00
10480;BME280;12789;42.610;23.040;2022-09-27T00:05:31;92733.94;;;15.96;100.00
10480;BME280;12789;42.610;23.040;2022-09-27T00:07:58;92740.78;;;16.03;100.00
10480;BME280;12789;42.610;23.040;2022-09-27T00:10:25;92732.09;;;15.90;100.00
10480;BME280;12789;42.610;23.040;2022-09-27T00:12:53;92745.00;;;15.98;100.00
10480;BME280;12789;42.610;23.040;2022-09-27T00:15:20;92754.25;;;16.00;100.00
10480;BME280;12789;42.610;23.040;2022-09-27T00:17:47;92755.06;;;15.94;100.00
10480;BME280;12789;42.610;23.040;2022-09-27T00:20:18;92754.81;;;15.89;100.00
10480;BME280;12789;42.610;23.040;2022-09-27T00:22:46;92753.81;;;15.84;100.00
10480;BME280;12789;42.610;23.040;2022-09-27T00:25:13;92748.59;;;15.84;100.00
10480;BME280;12789;42.610;23.040;2022-09-27T00:27:41;92733.66;;;15.71;100.00
10480;BME280;12789;42.610;23.040;2022-09-27T00:30:09;92745.75;;;15.79;100.00
10480;BME280;12789;42.610;23.040;2022-09-27T00:32:37;92737.84;;;15.66;100.00
10480;BME280;12789;42.610;23.040;2022-09-27T00:35:04;92722.78;;;15.61;100.00
10480;BME280;12789;42.610;23.040;2022-09-27T00:37:33;92737.72;;;15.74;100.00
10480;BME280;12789;42.610;23.040;2022-09-27T00:40:00;92738.91;;;15.78;100.00
10480;BME280;12789;42.610;23.040;2022-09-27T00:42:27;92733.31;;;15.81;100.00
10480;BME280;12789;42.610;23.040;2022-09-27T00:45:02;92721.63;;;15.83;100.00
10480;BME280;12789;42.610;23.040;2022-09-27T00:47:34;92728.28;;;15.86;100.00
10480;BME280;12789;42.610;23.040;2022-09-27T00:50:08;92732.88;;;15.77;100.00
10480;BME280;12789;42.610;23.040;2022-09-27T00:52:41;92733.13;;;15.89;100.00
10480;BME280;12789;42.610;23.040;2022-09-27T00:55:12;92733.31;;;15.94;100.00
10480;BME280;12789;42.610;23.040;2022-09-27T00:57:42;92724.66;;;15.74;100.00
10480;BME280;12789;42.610;23.040;2022-09-27T01:00:12;92713.78;;;15.77;100.00
10480;BME280;12789;42.610;23.040;2022-09-27T01:02:43;92711.16;;;15.70;100.00
10480;BME280;12789;42.610;23.040;2022-09-27T01:05:13;92699.06;;;15.63;100.00
10480;BME280;12789;42.610;23.040;2022-09-27T01:07:42;92705.56;;;15.80;100.00
10480;BME280;12789;42.610;23.040;2022-09-27T01:10:09;92710.41;;;15.96;100.00
10480;BME280;12789;42.610;23.040;2022-09-27T01:12:44;92718.41;;;15.81;100.00
10480;BME280;12789;42.610;23.040;2022-09-27T01:15:22;92709.50;;;15.63;100.00
10480;BME280;12789;42.610;23.040;2022-09-27T01:18:04;92713.00;;;15.89;100.00
10480;BME280;12789;42.610;23.040;2022-09-27T01:20:59;92729.28;;;15.85;100.00
10480;BME280;12789;42.610;23.040;2022-09-27T01:26:53;92706.03;;;15.49;100.00
10480;BME280;12789;42.610;23.040;2022-09-27T01:29:35;92712.56;;;15.79;100.00
10480;BME280;12789;42.610;23.040;2022-09-27T01:32:14;92713.78;;;15.70;100.00
10480;BME280;12789;42.610;23.040;2022-09-27T01:34:48;92707.50;;;15.65;100.00
10480;BME280;12789;42.610;23.040;2022-09-27T01:37:23;92702.28;;;15.58;100.00
10480;BME280;12789;42.610;23.040;2022-09-27T01:39:56;92711.34;;;15.69;100.00
10480;BME280;12789;42.610;23.040;2022-09-27T01:42:30;92701.53;;;15.71;100.00
10480;BME280;12789;42.610;23.040;2022-09-27T01:45:02;92708.13;;;15.60;100.00
10480;BME280;12789;42.610;23.040;2022-09-27T01:47:38;92711.13;;;15.64;100.00
10480;BME280;12789;42.610;23.040;2022-09-27T01:50:10;92700.28;;;15.67;100.00
10480;BME280;12789;42.610;23.040;2022-09-27T01:52:43;92706.69;;;15.58;100.00
10480;BME280;12789;42.610;23.040;2022-09-27T01:55:15;92689.00;;;15.53;100.00
10480;BME280;12789;42.610;23.040;2022-09-27T01:57:48;92669.72;;;15.61;100.00
10480;BME280;12789;42.610;23.040;2022-09-27T02:00:18;92663.28;;;15.57;100.00
10480;BME280;12789;42.610;23.040;2022-09-27T02:02:50;92665.50;;;15.53;100.00
10480;BME280;12789;42.610;23.040;2022-09-27T02:05:19;92658.69;;;15.52;100.00
10480;BME280;12789;42.610;23.040;2022-09-27T02:07:52;92651.22;;;15.56;100.00
10480;BME280;12789;42.610;23.040;2022-09-27T02:10:24;92650.22;;;15.57;100.00
10480;BME280;12789;42.610;23.040;2022-09-27T02:12:57;92641.41;;;15.58;100.00
10480;BME280;12789;42.610;23.040;2022-09-27T02:15:29;92639.56;;;15.52;100.00
10480;BME280;12789;42.610;23.040;2022-09-27T02:18:10;92637.16;;;15.57;100.00
10480;BME280;12789;42.610;23.040;2022-09-27T02:20:43;92641.22;;;15.59;100.00
10480;BME280;12789;42.610;23.040;2022-09-27T02:23:17;92626.13;;;15.55;100.00
10480;BME280;12789;42.610;23.040;2022-09-27T02:25:52;92625.53;;;15.66;100.00
10480;BME280;12789;42.610;23.040;2022-09-27T02:28:25;92623.53;;;15.68;100.00
10480;BME280;12789;42.610;23.040;2022-09-27T02:30:53;92615.69;;;15.68;100.00
10480;BME280;12789;42.610;23.040;2022-09-27T02:33:25;92600.59;;;15.50;100.00
10480;BME280;12789;42.610;23.040;2022-09-27T02:35:54;92619.09;;;15.62;100.00
10480;BME280;12789;42.610;23.040;2022-09-27T02:38:22;92622.34;;;15.77;100.00
10480;BME280;12789;42.610;23.040;2022-09-27T02:40:49;92617.09;;;15.64;100.00
10480;BME280;12789;42.610;23.040;2022-09-27T02:43:19;92635.56;;;15.56;100.00
10480;BME280;12789;42.610;23.040;2022-09-27T02:45:53;92630.34;;;15.56;100.00
10480;BME280;12789;42.610;23.040;2022-09-27T02:48:31;92631.97;;;15.70;100.00
10480;BME280;12789;42.610;23.040;2022-09-27T02:51:15;92613.72;;;15.83;100.00
10480;BME280;12789;42.610;23.040;2022-09-27T02:53:57;92610.69;;;15.66;100.00
10480;BME280;12789;42.610;23.040;2022-09-27T02:56:33;92616.31;;;15.83;100.00
10480;BME280;12789;42.610;23.040;2022-09-27T02:59:07;92600.22;;;15.79;100.00
10480;BME280;12789;42.610;23.040;2022-09-27T03:01:43;92604.22;;;15.69;100.00
10480;BME280;12789;42.610;23.040;2022-09-27T03:04:22;92602.63;;;15.68;100.00
10480;BME280;12789;42.610;23.040;2022-09-27T03:06:52;92598.63;;;15.72;100.00
10480;BME280;12789;42.610;23.040;2022-09-27T03:09:22;92593.41;;;15.72;100.00
10480;BME280;12789;42.610;23.040;2022-09-27T03:11:50;92583.34;;;15.69;100.00
10480;BME280;12789;42.610;23.040;2022-09-27T03:14:17;92576.50;;;15.68;100.00
10480;BME280;12789;42.610;23.040;2022-09-27T03:16:44;92573.31;;;15.79;100.00
10480;BME280;12789;42.610;23.040;2022-09-27T03:19:11;92562.44;;;15.69;100.00
10480;BME280;12789;42.610;23.040;2022-09-27T03:21:40;92564.03;;;15.70;100.00
10480;BME280;12789;42.610;23.040;2022-09-27T03:24:06;92564.03;;;15.57;100.00
10480;BME280;12789;42.610;23.040;2022-09-27T03:26:33;92570.09;;;15.57;100.00
10480;BME280;12789;42.610;23.040;2022-09-27T03:29:00;92573.09;;;15.67;100.00
10480;BME280;12789;42.610;23.040;2022-09-27T03:31:27;92564.66;;;15.65;100.00
10480;BME280;12789;42.610;23.040;2022-09-27T03:33:54;92565.69;;;15.71;100.00
10480;BME280;12789;42.610;23.040;2022-09-27T03:36:21;92562.84;;;15.53;100.00
10480;BME280;12789;42.610;23.040;2022-09-27T03:38:50;92562.22;;;15.51;100.00
10480;BME280;12789;42.610;23.040;2022-09-27T03:41:17;92570.88;;;15.45;100.00
10480;BME280;12789;42.610;23.040;2022-09-27T03:43:44;92580.13;;;15.54;100.00
10480;BME280;12789;42.610;23.040;2022-09-27T03:46:11;92585.72;;;15.44;100.00
10480;BME280;12789;42.610;23.040;2022-09-27T03:48:38;92571.66;;;15.39;100.00
10480;BME280;12789;42.610;23.040;2022-09-27T03:51:07;92573.25;;;15.46;100.00
10480;BME280;12789;42.610;23.040;2022-09-27T03:53:34;92563.63;;;15.47;100.00
10480;BME280;12789;42.610;23.040;2022-09-27T03:56:03;92565.66;;;15.45;100.00
10480;BME280;12789;42.610;23.040;2022-09-27T03:58:30;92572.06;;;15.36;100.00
10480;BME280;12789;42.610;23.040;2022-09-27T04:00:57;92587.72;;;15.36;100.00
10480;BME280;12789;42.610;23.040;2022-09-27T04:03:23;92570.50;;;15.54;100.00
10480;BME280;12789;42.610;23.040;2022-09-27T04:05:51;92566.44;;;15.65;100.00
10480;BME280;12789;42.610;23.040;2022-09-27T04:08:18;92556.44;;;15.55;100.00
10480;BME280;12789;42.610;23.040;2022-09-27T04:10:46;92565.66;;;15.58;100.00
10480;BME280;12789;42.610;23.040;2022-09-27T04:13:14;92556.41;;;15.68;100.00
10480;BME280;12789;42.610;23.040;2022-09-27T04:15:42;92554.19;;;15.46;100.00
10480;BME280;12789;42.610;23.040;2022-09-27T04:18:09;92570.47;;;15.61;100.00
10480;BME280;12789;42.610;23.040;2022-09-27T04:20:36;92565.47;;;15.72;100.00
10480;BME280;12789;42.610;23.040;2022-09-27T04:23:03;92569.25;;;15.57;100.00
10480;BME280;12789;42.610;23.040;2022-09-27T04:25:30;92580.88;;;15.41;100.00
10480;BME280;12789;42.610;23.040;2022-09-27T04:27:58;92581.34;;;15.71;100.00
10480;BME280;12789;42.610;23.040;2022-09-27T04:30:27;92578.94;;;15.69;100.00
10480;BME280;12789;42.610;23.040;2022-09-27T04:32:54;92570.44;;;15.35;100.00
10480;BME280;12789;42.610;23.040;2022-09-27T04:35:20;92581.91;;;15.34;100.00
10480;BME280;12789;42.610;23.040;2022-09-27T04:38:05;92588.72;;;15.35;100.00
10480;BME280;12789;42.610;23.040;2022-09-27T04:40:33;92585.50;;;15.39;100.00
10480;BME280;12789;42.610;23.040;2022-09-27T04:43:01;92583.72;;;15.53;100.00
10480;BME280;12789;42.610;23.040;2022-09-27T04:45:30;92577.69;;;15.46;100.00
10480;BME280;12789;42.610;23.040;2022-09-27T04:47:57;92572.06;;;15.62;100.00
10480;BME280;12789;42.610;23.040;2022-09-27T04:50:24;92578.31;;;15.61;100.00
10480;BME280;12789;42.610;23.040;2022-09-27T04:52:52;92575.91;;;15.53;100.00
10480;BME280;12789;42.610;23.040;2022-09-27T04:55:20;92565.03;;;15.56;100.00
10480;BME280;12789;42.610;23.040;2022-09-27T04:57:48;92570.50;;;15.54;100.00
10480;BME280;12789;42.610;23.040;2022-09-27T05:00:16;92580.69;;;15.49;100.00
10480;BME280;12789;42.610;23.040;2022-09-27T05:02:48;92582.94;;;15.59;100.00
10480;BME280;12789;42.610;23.040;2022-09-27T05:05:16;92563.63;;;15.47;100.00
10480;BME280;12789;42.610;23.040;2022-09-27T05:07:43;92572.88;;;15.69;100.00
10480;BME280;12789;42.610;23.040;2022-09-27T05:10:10;92564.03;;;15.50;100.00
10480;BME280;12789;42.610;23.040;2022-09-27T05:12:38;92562.63;;;15.61;100.00
10480;BME280;12789;42.610;23.040;2022-09-27T05:15:07;92557.59;;;15.46;100.00
10480;BME280;12789;42.610;23.040;2022-09-27T05:17:34;92554.59;;;15.43;100.00
10480;BME280;12789;42.610;23.040;2022-09-27T05:20:04;92549.97;;;15.58;100.00
10480;BME280;12789;42.610;23.040;2022-09-27T05:22:31;92550.59;;;15.60;100.00
10480;BME280;12789;42.610;23.040;2022-09-27T05:24:58;92553.97;;;15.47;100.00
10480;BME280;12789;42.610;23.040;2022-09-27T05:27:25;92548.16;;;15.52;100.00
10480;BME280;12789;42.610;23.040;2022-09-27T05:29:52;92545.13;;;15.48;100.00
10480;BME280;12789;42.610;23.040;2022-09-27T05:32:19;92542.16;;;15.51;100.00
10480;BME280;12789;42.610;23.040;2022-09-27T05:34:46;92552.78;;;15.43;100.00
10480;BME280;12789;42.610;23.040;2022-09-27T05:37:15;92558.81;;;15.57;100.00
10480;BME280;12789;42.610;23.040;2022-09-27T05:39:43;92554.19;;;15.59;100.00
10480;BME280;12789;42.610;23.040;2022-09-27T05:42:10;92542.34;;;15.50;100.00
10480;BME280;12789;42.610;23.040;2022-09-27T05:44:40;92544.34;;;15.48;100.00
10480;BME280;12789;42.610;23.040;2022-09-27T05:47:11;92560.22;;;15.66;100.00
10480;BME280;12789;42.610;23.040;2022-09-27T05:49:38;92553.41;;;15.71;100.00
10480;BME280;12789;42.610;23.040;2022-09-27T05:52:06;92533.50;;;15.51;100.00
10480;BME280;12789;42.610;23.040;2022-09-27T05:54:35;92556.41;;;15.62;100.00
10480;BME280;12789;42.610;23.040;2022-09-27T05:57:02;92566.06;;;15.55;100.00
10480;BME280;12789;42.610;23.040;2022-09-27T05:59:32;92549.59;;;15.74;100.00
10480;BME280;12789;42.610;23.040;2022-09-27T06:01:59;92557.22;;;15.82;100.00
10480;BME280;12789;42.610;23.040;2022-09-27T06:04:26;92546.97;;;15.80;100.00
10480;BME280;12789;42.610;23.040;2022-09-27T06:06:53;92549.78;;;15.72;100.00
10480;BME280;12789;42.610;23.040;2022-09-27T06:09:23;92564.84;;;15.83;100.00
10480;BME280;12789;42.610;23.040;2022-09-27T06:11:55;92572.09;;;15.75;100.00
10480;BME280;12789;42.610;23.040;2022-09-27T06:14:22;92578.09;;;15.69;100.00
10480;BME280;12789;42.610;23.040;2022-09-27T06:16:49;92585.34;;;15.86;100.00
10480;BME280;12789;42.610;23.040;2022-09-27T06:19:16;92572.91;;;15.82;100.00
10480;BME280;12789;42.610;23.040;2022-09-27T06:21:43;92568.47;;;15.69;100.00
10480;BME280;12789;42.610;23.040;2022-09-27T06:24:09;92566.06;;;15.81;100.00
10480;BME280;12789;42.610;23.040;2022-09-27T06:26:37;92563.06;;;15.71;100.00
10480;BME280;12789;42.610;23.040;2022-09-27T06:29:05;92575.28;;;15.64;100.00
10480;BME280;12789;42.610;23.040;2022-09-27T06:31:32;92573.69;;;15.50;100.00
10480;BME280;12789;42.610;23.040;2022-09-27T06:33:59;92562.44;;;15.56;100.00
10480;BME280;12789;42.610;23.040;2022-09-27T06:36:26;92554.59;;;15.69;100.00
10480;BME280;12789;42.610;23.040;2022-09-27T06:38:53;92549.00;;;15.72;100.00
10480;BME280;12789;42.610;23.040;2022-09-27T06:41:20;92520.25;;;15.46;100.00
10480;BME280;12789;42.610;23.040;2022-09-27T06:43:47;92543.75;;;15.85;100.00
10480;BME280;12789;42.610;23.040;2022-09-27T06:46:15;92539.94;;;15.68;100.00
10480;BME280;12789;42.610;23.040;2022-09-27T06:48:43;92546.19;;;15.80;100.00
10480;BME280;12789;42.610;23.040;2022-09-27T06:51:10;92559.22;;;15.67;100.00
10480;BME280;12789;42.610;23.040;2022-09-27T06:53:37;92567.66;;;15.56;100.00
10480;BME280;12789;42.610;23.040;2022-09-27T06:56:04;92562.03;;;15.59;100.00
10480;BME280;12789;42.610;23.040;2022-09-27T06:58:31;92554.44;;;15.77;100.00
10480;BME280;12789;42.610;23.040;2022-09-27T07:01:18;92554.38;;;16.03;100.00
10480;BME280;12789;42.610;23.040;2022-09-27T07:03:48;92544.34;;;16.13;100.00
10480;BME280;12789;42.610;23.040;2022-09-27T07:06:17;92553.19;;;15.99;100.00
10480;BME280;12789;42.610;23.040;2022-09-27T07:08:49;92554.00;;;16.12;100.00
10480;BME280;12789;42.610;23.040;2022-09-27T07:11:16;92563.63;;;16.18;100.00
10480;BME280;12789;42.610;23.040;2022-09-27T07:13:44;92559.81;;;16.08;100.00
10480;BME280;12789;42.610;23.040;2022-09-27T07:16:11;92542.75;;;16.12;100.00
10480;BME280;12789;42.610;23.040;2022-09-27T07:18:40;92573.28;;;16.05;100.00
10480;BME280;12789;42.610;23.040;2022-09-27T07:21:08;92565.25;;;16.13;100.00
10480;BME280;12789;42.610;23.040;2022-09-27T07:23:37;92568.44;;;16.28;100.00
10480;BME280;12789;42.610;23.040;2022-09-27T07:26:04;92576.28;;;16.28;100.00
10480;BME280;12789;42.610;23.040;2022-09-27T07:28:33;92567.66;;;15.95;100.00
10480;BME280;12789;42.610;23.040;2022-09-27T07:31:01;92577.75;;;15.91;100.00
10480;BME280;12789;42.610;23.040;2022-09-27T07:33:28;92569.47;;;16.01;100.00
10480;BME280;12789;42.610;23.040;2022-09-27T07:35:57;92568.88;;;15.99;100.00
10480;BME280;12789;42.610;23.040;2022-09-27T07:38:25;92568.88;;;16.12;100.00
10480;BME280;12789;42.610;23.040;2022-09-27T07:40:52;92575.28;;;16.22;100.00
10480;BME280;12789;42.610;23.040;2022-09-27T07:43:19;92559.41;;;16.17;100.00
10480;BME280;12789;42.610;23.040;2022-09-27T07:45:46;92572.31;;;15.99;100.00
10480;BME280;12789;42.610;23.040;2022-09-27T07:48:14;92570.88;;;15.97;100.00
10480;BME280;12789;42.610;23.040;2022-09-27T07:50:42;92576.13;;;15.97;100.00
10480;BME280;12789;42.610;23.040;2022-09-27T07:53:10;92550.56;;;15.99;100.00
10480;BME280;12789;42.610;23.040;2022-09-27T07:55:38;92568.28;;;15.97;100.00
10480;BME280;12789;42.610;23.040;2022-09-27T07:58:08;92572.06;;;16.27;100.00
10480;BME280;12789;42.610;23.040;2022-09-27T08:00:36;92574.28;;;16.43;100.00
10480;BME280;12789;42.610;23.040;2022-09-27T08:03:05;92574.47;;;16.48;100.00
10480;BME280;12789;42.610;23.040;2022-09-27T08:05:35;92580.31;;;16.50;100.00
10480;BME280;12789;42.610;23.040;2022-09-27T08:08:02;92574.09;;;16.38;100.00
10480;BME280;12789;42.610;23.040;2022-09-27T08:10:32;92550.78;;;16.10;100.00
10480;BME280;12789;42.610;23.040;2022-09-27T08:13:00;92571.28;;;16.20;100.00
10480;BME280;12789;42.610;23.040;2022-09-27T08:15:28;92570.47;;;16.52;100.00
10480;BME280;12789;42.610;23.040;2022-09-27T08:17:55;92552.47;;;16.74;100.00
10480;BME280;12789;42.610;23.040;2022-09-27T08:20:22;92554.75;;;17.02;100.00
10480;BME280;12789;42.610;23.040;2022-09-27T08:22:49;92550.59;;;17.25;100.00
10480;BME280;12789;42.610;23.040;2022-09-27T08:25:16;92545.97;;;17.34;100.00
10480;BME280;12789;42.610;23.040;2022-09-27T08:27:53;92548.25;;;17.55;100.00
10480;BME280;12789;42.610;23.040;2022-09-27T08:30:21;92533.16;;;17.81;100.00
10480;BME280;12789;42.610;23.040;2022-09-27T08:32:54;92537.22;;;18.26;100.00
10480;BME280;12789;42.610;23.040;2022-09-27T08:35:21;92536.78;;;18.29;100.00
10480;BME280;12789;42.610;23.040;2022-09-27T08:37:53;92522.81;;;18.89;100.00
10480;BME280;12789;42.610;23.040;2022-09-27T08:40:22;92531.41;;;18.78;100.00
10480;BME280;12789;42.610;23.040;2022-09-27T08:42:59;92498.84;;;18.49;100.00
10480;BME280;12789;42.610;23.040;2022-09-27T08:45:30;92543.97;;;18.58;100.00
10480;BME280;12789;42.610;23.040;2022-09-27T08:48:00;92537.75;;;18.52;100.00
10480;BME280;12789;42.610;23.040;2022-09-27T08:50:29;92535.38;;;18.51;100.00
10480;BME280;12789;42.610;23.040;2022-09-27T08:53:02;92548.84;;;18.54;100.00
10480;BME280;12789;42.610;23.040;2022-09-27T08:55:35;92520.91;;;18.78;100.00
10480;BME280;12789;42.610;23.040;2022-09-27T08:58:12;92512.22;;;18.95;100.00
10480;BME280;12789;42.610;23.040;2022-09-27T09:00:40;92526.59;;;18.75;100.00
10480;BME280;12789;42.610;23.040;2022-09-27T09:03:17;92511.00;;;18.44;100.00
10480;BME280;12789;42.610;23.040;2022-09-27T09:05:55;92520.03;;;18.23;100.00
10480;BME280;12789;42.610;23.040;2022-09-27T09:08:33;92519.47;;;18.64;100.00
10480;BME280;12789;42.610;23.040;2022-09-27T09:11:08;92500.59;;;18.73;100.00
10480;BME280;12789;42.610;23.040;2022-09-27T09:14:17;92528.03;;;19.07;100.00
10480;BME280;12789;42.610;23.040;2022-09-27T09:16:53;92528.56;;;19.85;100.00
10480;BME280;12789;42.610;23.040;2022-09-27T09:19:38;92505.28;;;19.48;100.00
10480;BME280;12789;42.610;23.040;2022-09-27T09:22:18;92485.84;;;20.24;100.00
10480;BME280;12789;42.610;23.040;2022-09-27T09:24:56;92544.53;;;20.36;100.00
10480;BME280;12789;42.610;23.040;2022-09-27T09:27:32;92527.41;;;20.45;100.00
10480;BME280;12789;42.610;23.040;2022-09-27T09:30:18;92525.84;;;21.07;100.00
10480;BME280;12789;42.610;23.040;2022-09-27T09:32:56;92528.03;;;20.98;100.00
10480;BME280;12789;42.610;23.040;2022-09-27T09:35:34;92520.66;;;22.12;100.00
10480;BME280;12789;42.610;23.040;2022-09-27T09:38:09;92543.69;;;21.44;100.00
10480;BME280;12789;42.610;23.040;2022-09-27T09:40:41;92529.06;;;21.64;100.00
10480;BME280;12789;42.610;23.040;2022-09-27T09:43:15;92557.91;;;21.43;100.00
10480;BME280;12789;42.610;23.040;2022-09-27T09:45:50;92539.63;;;20.63;100.00
10480;BME280;12789;42.610;23.040;2022-09-27T09:48:24;92536.00;;;21.98;100.00
10480;BME280;12789;42.610;23.040;2022-09-27T09:50:57;92530.16;;;21.80;100.00
10480;BME280;12789;42.610;23.040;2022-09-27T09:53:34;92542.19;;;21.48;100.00
10480;BME280;12789;42.610;23.040;2022-09-27T09:56:06;92505.34;;;20.97;100.00
10480;BME280;12789;42.610;23.040;2022-09-27T09:58:40;92523.84;;;20.51;100.00
10480;BME280;12789;42.610;23.040;2022-09-27T10:01:17;92530.25;;;20.44;100.00
10480;BME280;12789;42.610;23.040;2022-09-27T10:03:45;92528.63;;;20.54;100.00
10480;BME280;12789;42.610;23.040;2022-09-27T10:06:13;92532.53;;;20.63;100.00
10480;BME280;12789;42.610;23.040;2022-09-27T10:08:42;92540.41;;;20.40;100.00
10480;BME280;12789;42.610;23.040;2022-09-27T10:11:17;92524.63;;;20.52;100.00
10480;BME280;12789;42.610;23.040;2022-09-27T10:13:47;92519.03;;;20.48;100.00
10480;BME280;12789;42.610;23.040;2022-09-27T10:16:19;92518.81;;;20.15;100.00
10480;BME280;12789;42.610;23.040;2022-09-27T10:18:46;92505.66;;;20.27;100.00
10480;BME280;12789;42.610;23.040;2022-09-27T10:21:19;92503.19;;;20.60;100.00
10480;BME280;12789;42.610;23.040;2022-09-27T10:24:08;92504.50;;;20.11;100.00
10480;BME280;12789;42.610;23.040;2022-09-27T10:26:37;92497.25;;;20.53;100.00
10480;BME280;12789;42.610;23.040;2022-09-27T10:29:24;92488.00;;;20.39;100.00
10480;BME280;12789;42.610;23.040;2022-09-27T10:31:58;92472.81;;;20.80;100.00
10480;BME280;12789;42.610;23.040;2022-09-27T10:34:29;92473.28;;;22.55;100.00
10480;BME280;12789;42.610;23.040;2022-09-27T10:37:16;92498.59;;;22.51;100.00
10480;BME280;12789;42.610;23.040;2022-09-27T10:39:44;92509.09;;;22.83;100.00
10480;BME280;12789;42.610;23.040;2022-09-27T10:42:29;92502.69;;;21.64;100.00
10480;BME280;12789;42.610;23.040;2022-09-27T10:44:58;92498.56;;;22.34;100.00
10480;BME280;12789;42.610;23.040;2022-09-27T10:47:47;92488.34;;;22.05;100.00
10480;BME280;12789;42.610;23.040;2022-09-27T10:50:17;92484.00;;;22.48;100.00
10480;BME280;12789;42.610;23.040;2022-09-27T10:52:46;92486.56;;;22.60;100.00
10480;BME280;12789;42.610;23.040;2022-09-27T10:55:20;92492.13;;;23.01;100.00
10480;BME280;12789;42.610;23.040;2022-09-27T10:57:50;92456.97;;;22.41;100.00
10480;BME280;12789;42.610;23.040;2022-09-27T11:00:22;92483.19;;;22.64;100.00
10480;BME280;12789;42.610;23.040;2022-09-27T11:02:54;92483.25;;;24.13;100.00
10480;BME280;12789;42.610;23.040;2022-09-27T11:05:31;92476.53;;;22.62;100.00
10480;BME280;12789;42.610;23.040;2022-09-27T11:08:01;92467.59;;;23.27;100.00
10480;BME280;12789;42.610;23.040;2022-09-27T11:10:30;92434.94;;;24.32;100.00
10480;BME280;12789;42.610;23.040;2022-09-27T11:13:11;92446.63;;;24.36;100.00
10480;BME280;12789;42.610;23.040;2022-09-27T11:15:50;92464.66;;;24.39;100.00
10480;BME280;12789;42.610;23.040;2022-09-27T11:18:30;92460.56;;;23.90;100.00
10480;BME280;12789;42.610;23.040;2022-09-27T11:21:15;92459.13;;;23.51;100.00
10480;BME280;12789;42.610;23.040;2022-09-27T11:24:06;92435.97;;;24.62;100.00
10480;BME280;12789;42.610;23.040;2022-09-27T11:26:54;92435.31;;;25.02;100.00
10480;BME280;12789;42.610;23.040;2022-09-27T11:29:33;92429.09;;;25.28;100.00
10480;BME280;12789;42.610;23.040;2022-09-27T11:32:15;92420.63;;;24.69;100.00
10480;BME280;12789;42.610;23.040;2022-09-27T11:38:01;92411.56;;;25.27;100.00
10480;BME280;12789;42.610;23.040;2022-09-27T11:40:48;92410.72;;;27.01;100.00
10480;BME280;12789;42.610;23.040;2022-09-27T11:43:36;92396.81;;;25.91;91.58
10480;BME280;12789;42.610;23.040;2022-09-27T11:46:12;92399.97;;;25.58;90.20
10480;BME280;12789;42.610;23.040;2022-09-27T11:49:00;92388.53;;;27.25;87.33
10480;BME280;12789;42.610;23.040;2022-09-27T11:51:48;92375.03;;;25.84;87.20
10480;BME280;12789;42.610;23.040;2022-09-27T11:54:33;92387.59;;;25.02;86.10
10480;BME280;12789;42.610;23.040;2022-09-27T11:57:11;92389.38;;;25.83;85.30
10480;BME280;12789;42.610;23.040;2022-09-27T12:00:08;92377.59;;;26.58;83.22
10480;BME280;12789;42.610;23.040;2022-09-27T12:03:05;92370.16;;;25.16;84.96
10480;BME280;12789;42.610;23.040;2022-09-27T12:05:41;92365.69;;;27.57;77.83
10480;BME280;12789;42.610;23.040;2022-09-27T12:08:26;92375.69;;;26.74;81.64
10480;BME280;12789;42.610;23.040;2022-09-27T12:11:01;92373.16;;;25.49;83.87
10480;BME280;12789;42.610;23.040;2022-09-27T12:13:35;92377.03;;;27.78;77.15
10480;BME280;12789;42.610;23.040;2022-09-27T12:16:05;92357.75;;;26.16;81.54
10480;BME280;12789;42.610;23.040;2022-09-27T12:18:35;92342.38;;;25.43;82.84
10480;BME280;12789;42.610;23.040;2022-09-27T12:21:06;92334.41;;;25.88;80.38
10480;BME280;12789;42.610;23.040;2022-09-27T12:23:38;92336.31;;;27.77;75.13
10480;BME280;12789;42.610;23.040;2022-09-27T12:26:12;92331.50;;;28.08;75.75
10480;BME280;12789;42.610;23.040;2022-09-27T12:28:47;92335.16;;;26.18;79.49
10480;BME280;12789;42.610;23.040;2022-09-27T12:31:22;92311.84;;;25.41;82.14
10480;BME280;12789;42.610;23.040;2022-09-27T12:34:00;92325.34;;;24.43;85.05
10480;BME280;12789;42.610;23.040;2022-09-27T12:36:31;92317.16;;;26.00;82.09
10480;BME280;12789;42.610;23.040;2022-09-27T12:39:04;92274.94;;;25.59;80.15
10480;BME280;12789;42.610;23.040;2022-09-27T12:41:40;92300.84;;;26.37;80.19
10480;BME280;12789;42.610;23.040;2022-09-27T12:44:10;92293.00;;;25.62;83.14
10480;BME280;12789;42.610;23.040;2022-09-27T12:46:46;92302.28;;;27.98;75.99
10480;BME280;12789;42.610;23.040;2022-09-27T12:49:25;92302.56;;;26.76;79.73
10480;BME280;12789;42.610;23.040;2022-09-27T12:51:55;92302.41;;;24.68;84.17
10480;BME280;12789;42.610;23.040;2022-09-27T12:57:38;92302.81;;;24.45;83.96
10480;BME280;12789;42.610;23.040;2022-09-27T13:00:11;92308.22;;;24.09;84.69
10480;BME280;12789;42.610;23.040;2022-09-27T13:09:01;92307.50;;;24.95;79.03
10480;BME280;12789;42.610;23.040;2022-09-27T13:11:41;92320.88;;;24.53;78.09
10480;BME280;12789;42.610;23.040;2022-09-27T13:14:17;92297.50;;;26.01;74.25
10480;BME280;12789;42.610;23.040;2022-09-27T13:16:46;92303.84;;;26.10;73.45
10480;BME280;12789;42.610;23.040;2022-09-27T13:19:42;92301.97;;;25.01;77.08